sensor_id;sensor_type;location;lat;lon;timestamp;temperature;humidity
1411;DHT22;700;51.906;8.404;2023-04-06T00:00:58;5.90;90.30
1411;DHT22;700;51.906;8.404;2023-04-06T00:05:59;5.60;90.30
1411;DHT22;700;51.906;8.404;2023-04-06T00:11:02;5.50;90.90
1411;DHT22;700;51.906;8.404;2023-04-06T00:16:03;5.30;91.60
1411;DHT22;700;51.906;8.404;2023-04-06T00:21:05;5.50;91.40
1411;DHT22;700;51.906;8.404;2023-04-06T00:26:06;5.60;91.60
1411;DHT22;700;51.906;8.404;2023-04-06T00:31:09;5.90;91.30
1411;DHT22;700;51.906;8.404;2023-04-06T00:36:10;5.70;91.40
1411;DHT22;700;51.906;8.404;2023-04-06T00:41:13;5.80;91.30
1411;DHT22;700;51.906;8.404;2023-04-06T00:46:14;5.60;92.10
1411;DHT22;700;51.906;8.404;2023-04-06T00:51:19;5.80;92.60
1411;DHT22;700;51.906;8.404;2023-04-06T00:56:25;5.90;92.50
1411;DHT22;700;51.906;8.404;2023-04-06T01:01:26;5.60;93.20
1411;DHT22;700;51.906;8.404;2023-04-06T01:06:29;5.70;92.80
1411;DHT22;700;51.906;8.404;2023-04-06T01:11:29;5.60;93.50
1411;DHT22;700;51.906;8.404;2023-04-06T01:16:32;5.40;94.00
1411;DHT22;700;51.906;8.404;2023-04-06T01:21:33;5.40;95.40
1411;DHT22;700;51.906;8.404;2023-04-06T01:26:35;5.50;95.60
1411;DHT22;700;51.906;8.404;2023-04-06T01:31:38;5.30;95.60
1411;DHT22;700;51.906;8.404;2023-04-06T01:36:39;5.20;96.10
1411;DHT22;700;51.906;8.404;2023-04-06T01:41:40;5.40;96.10
1411;DHT22;700;51.906;8.404;2023-04-06T01:46:43;5.60;95.90
1411;DHT22;700;51.906;8.404;2023-04-06T01:51:48;5.30;96.40
1411;DHT22;700;51.906;8.404;2023-04-06T01:56:51;5.00;97.90
1411;DHT22;700;51.906;8.404;2023-04-06T02:01:52;5.10;98.70
1411;DHT22;700;51.906;8.404;2023-04-06T02:06:53;4.90;99.00
1411;DHT22;700;51.906;8.404;2023-04-06T02:11:54;4.80;99.80
1411;DHT22;700;51.906;8.404;2023-04-06T02:16:56;4.90;99.70
1411;DHT22;700;51.906;8.404;2023-04-06T02:21:56;5.10;99.30
1411;DHT22;700;51.906;8.404;2023-04-06T02:26:58;5.10;98.90
1411;DHT22;700;51.906;8.404;2023-04-06T02:31:58;4.60;99.90
1411;DHT22;700;51.906;8.404;2023-04-06T02:36:59;4.80;99.90
1411;DHT22;700;51.906;8.404;2023-04-06T02:41:59;4.80;99.90
1411;DHT22;700;51.906;8.404;2023-04-06T02:47:00;4.60;99.90
1411;DHT22;700;51.906;8.404;2023-04-06T02:52:01;4.80;99.90
1411;DHT22;700;51.906;8.404;2023-04-06T02:57:05;4.50;99.90
1411;DHT22;700;51.906;8.404;2023-04-06T03:02:06;4.70;99.90
1411;DHT22;700;51.906;8.404;2023-04-06T03:07:06;4.50;99.90
1411;DHT22;700;51.906;8.404;2023-04-06T03:12:09;4.40;99.90
1411;DHT22;700;51.906;8.404;2023-04-06T03:17:14;4.40;99.90
1411;DHT22;700;51.906;8.404;2023-04-06T03:22:15;4.40;99.90
1411;DHT22;700;51.906;8.404;2023-04-06T03:27:18;4.40;99.90
1411;DHT22;700;51.906;8.404;2023-04-06T03:32:24;4.30;99.90
1411;DHT22;700;51.906;8.404;2023-04-06T03:37:25;4.30;99.90
1411;DHT22;700;51.906;8.404;2023-04-06T03:42:31;4.40;99.90
1411;DHT22;700;51.906;8.404;2023-04-06T03:47:37;4.30;99.90
1411;DHT22;700;51.906;8.404;2023-04-06T03:52:38;4.10;99.90
1411;DHT22;700;51.906;8.404;2023-04-06T03:57:40;4.30;99.90
1411;DHT22;700;51.906;8.404;2023-04-06T04:02:41;4.40;99.90
1411;DHT22;700;51.906;8.404;2023-04-06T04:07:44;4.30;99.90
1411;DHT22;700;51.906;8.404;2023-04-06T04:12:45;4.20;99.90
1411;DHT22;700;51.906;8.404;2023-04-06T04:17:46;4.10;99.90
1411;DHT22;700;51.906;8.404;2023-04-06T04:22:49;4.30;99.90
1411;DHT22;700;51.906;8.404;2023-04-06T04:27:52;4.00;99.90
1411;DHT22;700;51.906;8.404;2023-04-06T04:32:52;4.00;99.90
1411;DHT22;700;51.906;8.404;2023-04-06T04:37:53;3.80;99.90
1411;DHT22;700;51.906;8.404;2023-04-06T04:42:54;4.00;99.90
1411;DHT22;700;51.906;8.404;2023-04-06T04:47:58;4.10;99.90
1411;DHT22;700;51.906;8.404;2023-04-06T04:52:58;4.20;99.90
1411;DHT22;700;51.906;8.404;2023-04-06T04:57:59;4.30;99.90
1411;DHT22;700;51.906;8.404;2023-04-06T05:03:00;4.30;99.90
1411;DHT22;700;51.906;8.404;2023-04-06T05:08:01;4.60;99.90
1411;DHT22;700;51.906;8.404;2023-04-06T05:13:02;4.60;99.90
1411;DHT22;700;51.906;8.404;2023-04-06T05:18:03;4.60;99.90
1411;DHT22;700;51.906;8.404;2023-04-06T05:23:04;4.70;99.90
1411;DHT22;700;51.906;8.404;2023-04-06T05:28:05;4.60;99.90
1411;DHT22;700;51.906;8.404;2023-04-06T05:33:05;4.70;99.90
1411;DHT22;700;51.906;8.404;2023-04-06T05:38:08;4.80;99.90
1411;DHT22;700;51.906;8.404;2023-04-06T05:43:11;4.70;99.90
1411;DHT22;700;51.906;8.404;2023-04-06T05:48:11;4.60;99.90
1411;DHT22;700;51.906;8.404;2023-04-06T05:53:12;4.90;99.90
1411;DHT22;700;51.906;8.404;2023-04-06T05:58:13;5.10;99.90
1411;DHT22;700;51.906;8.404;2023-04-06T06:03:14;5.20;99.90
1411;DHT22;700;51.906;8.404;2023-04-06T06:08:15;5.60;99.90
1411;DHT22;700;51.906;8.404;2023-04-06T06:13:16;5.70;99.90
1411;DHT22;700;51.906;8.404;2023-04-06T06:18:16;6.00;99.90
1411;DHT22;700;51.906;8.404;2023-04-06T06:23:17;6.20;99.90
1411;DHT22;700;51.906;8.404;2023-04-06T06:28:18;6.40;99.90
1411;DHT22;700;51.906;8.404;2023-04-06T06:33:18;6.80;99.90
1411;DHT22;700;51.906;8.404;2023-04-06T06:38:19;6.70;99.40
1411;DHT22;700;51.906;8.404;2023-04-06T06:43:20;7.30;98.40
1411;DHT22;700;51.906;8.404;2023-04-06T06:48:21;7.60;97.50
1411;DHT22;700;51.906;8.404;2023-04-06T06:53:22;8.50;95.40
1411;DHT22;700;51.906;8.404;2023-04-06T06:58:23;9.50;91.90
1411;DHT22;700;51.906;8.404;2023-04-06T07:03:23;9.80;86.20
1411;DHT22;700;51.906;8.404;2023-04-06T07:08:27;11.10;81.50
1411;DHT22;700;51.906;8.404;2023-04-06T07:13:27;11.10;76.60
1411;DHT22;700;51.906;8.404;2023-04-06T07:18:30;12.30;73.00
1411;DHT22;700;51.906;8.404;2023-04-06T07:23:31;11.80;69.20
1411;DHT22;700;51.906;8.404;2023-04-06T07:28:32;10.70;73.20
1411;DHT22;700;51.906;8.404;2023-04-06T07:33:32;10.30;73.20
1411;DHT22;700;51.906;8.404;2023-04-06T07:38:33;11.00;73.70
1411;DHT22;700;51.906;8.404;2023-04-06T07:43:36;11.40;74.50
1411;DHT22;700;51.906;8.404;2023-04-06T07:48:37;11.60;69.10
1411;DHT22;700;51.906;8.404;2023-04-06T07:53:37;12.10;68.90
1411;DHT22;700;51.906;8.404;2023-04-06T07:58:41;12.30;64.40
1411;DHT22;700;51.906;8.404;2023-04-06T08:03:41;12.80;61.40
1411;DHT22;700;51.906;8.404;2023-04-06T08:08:45;13.20;58.80
1411;DHT22;700;51.906;8.404;2023-04-06T08:13:45;13.80;57.30
1411;DHT22;700;51.906;8.404;2023-04-06T08:18:46;15.60;54.70
1411;DHT22;700;51.906;8.404;2023-04-06T08:23:46;16.80;51.90
1411;DHT22;700;51.906;8.404;2023-04-06T08:28:49;19.50;47.40
1411;DHT22;700;51.906;8.404;2023-04-06T08:33:50;20.40;42.20
1411;DHT22;700;51.906;8.404;2023-04-06T08:38:51;19.70;41.60
1411;DHT22;700;51.906;8.404;2023-04-06T08:43:56;18.90;41.40
1411;DHT22;700;51.906;8.404;2023-04-06T08:49:01;19.30;43.20
1411;DHT22;700;51.906;8.404;2023-04-06T08:54:04;19.00;43.00
1411;DHT22;700;51.906;8.404;2023-04-06T08:59:08;18.80;40.90
1411;DHT22;700;51.906;8.404;2023-04-06T09:04:10;20.00;41.00
1411;DHT22;700;51.906;8.404;2023-04-06T09:09:11;20.20;41.30
1411;DHT22;700;51.906;8.404;2023-04-06T09:14:12;19.30;40.10
1411;DHT22;700;51.906;8.404;2023-04-06T09:19:13;20.20;39.70
1411;DHT22;700;51.906;8.404;2023-04-06T09:24:13;19.10;40.30
1411;DHT22;700;51.906;8.404;2023-04-06T09:29:24;21.50;39.90
1411;DHT22;700;51.906;8.404;2023-04-06T09:34:28;26.40;34.40
1411;DHT22;700;51.906;8.404;2023-04-06T09:39:29;30.60;29.20
1411;DHT22;700;51.906;8.404;2023-04-06T09:44:34;32.30;25.80
1411;DHT22;700;51.906;8.404;2023-04-06T09:49:35;32.10;23.00
1411;DHT22;700;51.906;8.404;2023-04-06T09:54:36;30.20;24.50
1411;DHT22;700;51.906;8.404;2023-04-06T10:00:03;30.90;24.00
1411;DHT22;700;51.906;8.404;2023-04-06T10:05:09;32.70;23.50
1411;DHT22;700;51.906;8.404;2023-04-06T10:10:14;33.50;23.40
1411;DHT22;700;51.906;8.404;2023-04-06T10:15:16;35.70;21.70
1411;DHT22;700;51.906;8.404;2023-04-06T10:25:35;33.40;21.80
1411;DHT22;700;51.906;8.404;2023-04-06T10:30:43;33.70;22.00
1411;DHT22;700;51.906;8.404;2023-04-06T10:35:44;31.20;23.10
1411;DHT22;700;51.906;8.404;2023-04-06T10:40:48;32.80;21.10
1411;DHT22;700;51.906;8.404;2023-04-06T10:45:59;34.80;22.00
1411;DHT22;700;51.906;8.404;2023-04-06T10:51:00;36.20;20.10
1411;DHT22;700;51.906;8.404;2023-04-06T10:56:04;36.20;20.40
1411;DHT22;700;51.906;8.404;2023-04-06T11:01:10;33.20;20.60
1411;DHT22;700;51.906;8.404;2023-04-06T11:06:18;34.10;20.70
1411;DHT22;700;51.906;8.404;2023-04-06T11:11:21;33.10;20.40
1411;DHT22;700;51.906;8.404;2023-04-06T11:16:26;32.90;20.60
1411;DHT22;700;51.906;8.404;2023-04-06T11:21:38;33.90;21.20
1411;DHT22;700;51.906;8.404;2023-04-06T11:31:49;35.00;18.90
1411;DHT22;700;51.906;8.404;2023-04-06T11:36:55;35.50;18.90
1411;DHT22;700;51.906;8.404;2023-04-06T11:41:59;34.60;19.80
1411;DHT22;700;51.906;8.404;2023-04-06T11:47:04;32.50;19.40
1411;DHT22;700;51.906;8.404;2023-04-06T11:52:19;31.00;20.30
1411;DHT22;700;51.906;8.404;2023-04-06T11:57:21;32.50;21.00
1411;DHT22;700;51.906;8.404;2023-04-06T12:02:28;30.30;20.50
1411;DHT22;700;51.906;8.404;2023-04-06T12:07:29;29.20;21.50
1411;DHT22;700;51.906;8.404;2023-04-06T12:12:30;25.50;24.90
1411;DHT22;700;51.906;8.404;2023-04-06T12:17:31;26.20;24.80
1411;DHT22;700;51.906;8.404;2023-04-06T12:22:32;25.80;23.50
1411;DHT22;700;51.906;8.404;2023-04-06T12:27:33;24.30;24.80
1411;DHT22;700;51.906;8.404;2023-04-06T12:32:33;25.60;24.50
1411;DHT22;700;51.906;8.404;2023-04-06T12:37:36;28.30;22.60
1411;DHT22;700;51.906;8.404;2023-04-06T12:42:38;29.60;21.10
1411;DHT22;700;51.906;8.404;2023-04-06T12:47:39;25.90;21.50
1411;DHT22;700;51.906;8.404;2023-04-06T12:52:40;23.00;24.90
1411;DHT22;700;51.906;8.404;2023-04-06T12:57:41;22.40;26.00
1411;DHT22;700;51.906;8.404;2023-04-06T13:02:42;22.00;26.40
1411;DHT22;700;51.906;8.404;2023-04-06T13:07:49;23.80;24.60
1411;DHT22;700;51.906;8.404;2023-04-06T13:12:52;24.10;24.60
1411;DHT22;700;51.906;8.404;2023-04-06T13:17:57;23.90;24.80
1411;DHT22;700;51.906;8.404;2023-04-06T13:23:00;25.00;24.30
1411;DHT22;700;51.906;8.404;2023-04-06T13:28:03;24.40;25.20
1411;DHT22;700;51.906;8.404;2023-04-06T13:33:06;24.30;25.10
1411;DHT22;700;51.906;8.404;2023-04-06T13:38:06;24.80;25.90
1411;DHT22;700;51.906;8.404;2023-04-06T13:43:09;25.00;25.00
1411;DHT22;700;51.906;8.404;2023-04-06T13:48:11;23.00;27.10
1411;DHT22;700;51.906;8.404;2023-04-06T13:53:14;20.30;28.30
1411;DHT22;700;51.906;8.404;2023-04-06T13:58:14;19.80;29.70
1411;DHT22;700;51.906;8.404;2023-04-06T14:03:18;19.30;29.90
1411;DHT22;700;51.906;8.404;2023-04-06T14:08:21;19.00;29.90
1411;DHT22;700;51.906;8.404;2023-04-06T14:13:22;18.20;30.50
1411;DHT22;700;51.906;8.404;2023-04-06T14:18:23;18.70;30.40
1411;DHT22;700;51.906;8.404;2023-04-06T14:23:24;19.10;31.30
1411;DHT22;700;51.906;8.404;2023-04-06T14:28:26;20.40;29.20
1411;DHT22;700;51.906;8.404;2023-04-06T14:33:27;19.10;28.30
1411;DHT22;700;51.906;8.404;2023-04-06T14:38:32;19.30;29.90
1411;DHT22;700;51.906;8.404;2023-04-06T14:43:39;19.40;29.40
1411;DHT22;700;51.906;8.404;2023-04-06T14:48:40;19.00;29.70
1411;DHT22;700;51.906;8.404;2023-04-06T14:53:44;18.70;31.30
1411;DHT22;700;51.906;8.404;2023-04-06T14:58:44;18.50;30.20
1411;DHT22;700;51.906;8.404;2023-04-06T15:03:45;18.30;30.90
1411;DHT22;700;51.906;8.404;2023-04-06T15:08:48;18.10;31.90
1411;DHT22;700;51.906;8.404;2023-04-06T15:13:51;18.20;31.50
1411;DHT22;700;51.906;8.404;2023-04-06T15:18:52;17.90;31.50
1411;DHT22;700;51.906;8.404;2023-04-06T15:23:55;17.50;32.20
1411;DHT22;700;51.906;8.404;2023-04-06T15:28:56;17.50;33.10
1411;DHT22;700;51.906;8.404;2023-04-06T15:33:59;17.60;33.20
1411;DHT22;700;51.906;8.404;2023-04-06T15:39:02;17.90;33.10
1411;DHT22;700;51.906;8.404;2023-04-06T15:44:03;17.30;33.60
1411;DHT22;700;51.906;8.404;2023-04-06T15:49:04;16.70;34.70
1411;DHT22;700;51.906;8.404;2023-04-06T15:54:07;16.90;35.70
1411;DHT22;700;51.906;8.404;2023-04-06T15:59:07;17.40;35.20
1411;DHT22;700;51.906;8.404;2023-04-06T16:04:08;17.40;35.10
1411;DHT22;700;51.906;8.404;2023-04-06T16:09:13;17.10;35.80
1411;DHT22;700;51.906;8.404;2023-04-06T16:14:13;16.80;36.40
1411;DHT22;700;51.906;8.404;2023-04-06T16:19:14;16.70;36.40
1411;DHT22;700;51.906;8.404;2023-04-06T16:24:17;16.80;36.70
1411;DHT22;700;51.906;8.404;2023-04-06T16:29:23;16.60;37.40
1411;DHT22;700;51.906;8.404;2023-04-06T16:34:24;16.60;38.30
1411;DHT22;700;51.906;8.404;2023-04-06T16:39:25;16.80;37.60
1411;DHT22;700;51.906;8.404;2023-04-06T16:44:26;16.40;37.90
1411;DHT22;700;51.906;8.404;2023-04-06T16:49:27;16.50;38.60
1411;DHT22;700;51.906;8.404;2023-04-06T16:54:28;16.30;38.90
1411;DHT22;700;51.906;8.404;2023-04-06T16:59:31;16.20;39.80
1411;DHT22;700;51.906;8.404;2023-04-06T17:04:34;16.20;40.20
1411;DHT22;700;51.906;8.404;2023-04-06T17:09:37;15.80;42.60
1411;DHT22;700;51.906;8.404;2023-04-06T17:14:40;16.10;44.50
1411;DHT22;700;51.906;8.404;2023-04-06T17:19:41;15.50;45.00
1411;DHT22;700;51.906;8.404;2023-04-06T17:24:41;15.50;46.10
1411;DHT22;700;51.906;8.404;2023-04-06T17:29:42;15.50;46.70
1411;DHT22;700;51.906;8.404;2023-04-06T17:34:45;15.10;47.10
1411;DHT22;700;51.906;8.404;2023-04-06T17:39:45;15.20;47.10
1411;DHT22;700;51.906;8.404;2023-04-06T17:44:49;14.80;47.50
1411;DHT22;700;51.906;8.404;2023-04-06T17:49:51;14.70;47.90
1411;DHT22;700;51.906;8.404;2023-04-06T17:54:51;14.70;48.00
1411;DHT22;700;51.906;8.404;2023-04-06T17:59:52;14.60;49.00
1411;DHT22;700;51.906;8.404;2023-04-06T18:04:56;14.60;49.80
1411;DHT22;700;51.906;8.404;2023-04-06T18:09:58;14.40;50.20
1411;DHT22;700;51.906;8.404;2023-04-06T18:15:01;14.60;50.70
1411;DHT22;700;51.906;8.404;2023-04-06T18:20:02;14.40;50.90
1411;DHT22;700;51.906;8.404;2023-04-06T18:25:03;14.40;51.50
1411;DHT22;700;51.906;8.404;2023-04-06T18:30:05;14.40;52.40
1411;DHT22;700;51.906;8.404;2023-04-06T18:35:08;14.20;52.80
1411;DHT22;700;51.906;8.404;2023-04-06T18:45:36;14.10;54.50
1411;DHT22;700;51.906;8.404;2023-04-06T18:50:56;14.20;55.20
1411;DHT22;700;51.906;8.404;2023-04-06T18:56:00;13.80;57.10
1411;DHT22;700;51.906;8.404;2023-04-06T19:01:02;13.50;59.20
1411;DHT22;700;51.906;8.404;2023-04-06T19:06:05;13.50;61.80
1411;DHT22;700;51.906;8.404;2023-04-06T19:11:11;13.60;65.40
1411;DHT22;700;51.906;8.404;2023-04-06T19:16:14;13.40;69.00
1411;DHT22;700;51.906;8.404;2023-04-06T19:21:19;13.00;76.70
1411;DHT22;700;51.906;8.404;2023-04-06T19:26:21;12.90;84.00
1411;DHT22;700;51.906;8.404;2023-04-06T19:31:24;12.90;89.70
1411;DHT22;700;51.906;8.404;2023-04-06T19:36:27;12.80;92.40
1411;DHT22;700;51.906;8.404;2023-04-06T19:41:27;12.50;95.60
1411;DHT22;700;51.906;8.404;2023-04-06T19:46:28;12.30;98.60
1411;DHT22;700;51.906;8.404;2023-04-06T19:51:32;12.40;99.90
1411;DHT22;700;51.906;8.404;2023-04-06T19:56:33;12.50;99.90
1411;DHT22;700;51.906;8.404;2023-04-06T20:01:34;12.60;99.90
1411;DHT22;700;51.906;8.404;2023-04-06T20:06:39;11.90;99.90
1411;DHT22;700;51.906;8.404;2023-04-06T20:11:42;12.00;99.90
1411;DHT22;700;51.906;8.404;2023-04-06T20:16:45;12.10;99.90
1411;DHT22;700;51.906;8.404;2023-04-06T20:21:46;12.30;99.90
1411;DHT22;700;51.906;8.404;2023-04-06T20:26:47;12.00;99.90
1411;DHT22;700;51.906;8.404;2023-04-06T20:31:50;11.70;99.90
1411;DHT22;700;51.906;8.404;2023-04-06T20:36:53;11.70;99.90
1411;DHT22;700;51.906;8.404;2023-04-06T20:41:54;11.60;99.90
1411;DHT22;700;51.906;8.404;2023-04-06T20:46:55;11.50;99.90
1411;DHT22;700;51.906;8.404;2023-04-06T20:51:55;11.40;99.90
1411;DHT22;700;51.906;8.404;2023-04-06T20:56:58;11.60;99.90
1411;DHT22;700;51.906;8.404;2023-04-06T21:01:59;11.20;99.90
1411;DHT22;700;51.906;8.404;2023-04-06T21:07:05;11.30;99.90
1411;DHT22;700;51.906;8.404;2023-04-06T21:12:06;11.20;99.90
1411;DHT22;700;51.906;8.404;2023-04-06T21:17:07;11.20;99.90
1411;DHT22;700;51.906;8.404;2023-04-06T21:22:07;11.10;99.90
1411;DHT22;700;51.906;8.404;2023-04-06T21:27:11;11.10;99.90
1411;DHT22;700;51.906;8.404;2023-04-06T21:32:12;10.70;99.90
1411;DHT22;700;51.906;8.404;2023-04-06T21:37:13;10.80;99.90
1411;DHT22;700;51.906;8.404;2023-04-06T21:42:16;10.60;99.90
1411;DHT22;700;51.906;8.404;2023-04-06T21:47:19;10.60;99.90
1411;DHT22;700;51.906;8.404;2023-04-06T21:52:22;10.60;99.90
1411;DHT22;700;51.906;8.404;2023-04-06T21:57:25;10.70;99.90
1411;DHT22;700;51.906;8.404;2023-04-06T22:02:26;10.80;99.90
1411;DHT22;700;51.906;8.404;2023-04-06T22:07:30;10.60;99.90
1411;DHT22;700;51.906;8.404;2023-04-06T22:12:30;10.50;99.90
1411;DHT22;700;51.906;8.404;2023-04-06T22:17:31;10.60;99.90
1411;DHT22;700;51.906;8.404;2023-04-06T22:22:32;10.50;99.90
1411;DHT22;700;51.906;8.404;2023-04-06T22:27:33;10.60;99.90
1411;DHT22;700;51.906;8.404;2023-04-06T22:32:33;10.60;99.90
1411;DHT22;700;51.906;8.404;2023-04-06T22:37:34;10.70;99.90
1411;DHT22;700;51.906;8.404;2023-04-06T22:42:37;10.80;99.90
1411;DHT22;700;51.906;8.404;2023-04-06T22:47:37;11.10;99.90
1411;DHT22;700;51.906;8.404;2023-04-06T22:52:38;11.20;99.90
1411;DHT22;700;51.906;8.404;2023-04-06T22:57:44;11.00;99.90
1411;DHT22;700;51.906;8.404;2023-04-06T23:02:44;11.10;99.90
1411;DHT22;700;51.906;8.404;2023-04-06T23:07:45;10.40;99.90
1411;DHT22;700;51.906;8.404;2023-04-06T23:12:46;10.50;99.90
1411;DHT22;700;51.906;8.404;2023-04-06T23:17:50;10.40;99.90
1411;DHT22;700;51.906;8.404;2023-04-06T23:22:50;10.30;99.90
1411;DHT22;700;51.906;8.404;2023-04-06T23:27:51;10.30;99.90
1411;DHT22;700;51.906;8.404;2023-04-06T23:32:52;10.10;99.90
1411;DHT22;700;51.906;8.404;2023-04-06T23:37:52;10.10;99.90
1411;DHT22;700;51.906;8.404;2023-04-06T23:42:55;10.10;99.90
1411;DHT22;700;51.906;8.404;2023-04-06T23:47:58;10.10;99.90
1411;DHT22;700;51.906;8.404;2023-04-06T23:52:59;10.20;99.90
1411;DHT22;700;51.906;8.404;2023-04-06T23:57:59;10.40;99.90
